createdAt,value
2019-02-12T00:02:01.495Z,63.89
2019-02-12T00:04:33.148Z,63.68
2019-02-12T00:07:04.812Z,64.06
2019-02-12T00:09:36.532Z,64.34
2019-02-12T00:12:08.124Z,64.89
2019-02-12T00:14:39.979Z,64.80
2019-02-12T00:17:11.652Z,64.98
2019-02-12T00:19:43.457Z,65.04
2019-02-12T00:22:15.192Z,64.83
2019-02-12T00:24:46.816Z,64.91
2019-02-12T00:27:18.432Z,65.09
2019-02-12T00:29:50.023Z,65.01
2019-02-12T00:32:21.583Z,65.16
2019-02-12T00:34:53.193Z,64.98
2019-02-12T00:37:24.993Z,65.16
2019-02-12T00:39:56.593Z,65.26
2019-02-12T00:42:28.177Z,65.41
2019-02-12T00:44:59.836Z,65.34
2019-02-12T00:47:35.659Z,65.41
2019-02-12T00:50:11.213Z,65.18
2019-02-12T00:52:42.811Z,65.22
2019-02-12T00:55:16.443Z,64.76
2019-02-12T00:57:47.790Z,64.83
2019-02-12T01:00:19.442Z,64.96
2019-02-12T01:02:51.061Z,65.08
2019-02-12T01:05:22.645Z,65.06
2019-02-12T01:07:54.490Z,65.17
2019-02-12T01:10:26.212Z,65.24
2019-02-12T01:12:57.852Z,64.93
2019-02-12T01:15:29.564Z,64.53
2019-02-12T01:18:01.286Z,64.63
2019-02-12T01:20:32.980Z,65.27
2019-02-12T01:23:04.592Z,65.49
2019-02-12T01:25:36.187Z,65.13
2019-02-12T01:28:07.863Z,65.33
2019-02-12T01:30:39.580Z,65.37
2019-02-12T01:33:11.410Z,65.66
2019-02-12T01:35:43.127Z,66.04
2019-02-12T01:38:15.027Z,66.06
2019-02-12T01:40:46.667Z,65.96
2019-02-12T01:43:18.257Z,65.82
2019-02-12T01:45:49.966Z,66.08
2019-02-12T01:48:21.644Z,65.94
2019-02-12T01:50:53.419Z,66.00
2019-02-12T01:53:24.995Z,65.97
2019-02-12T01:55:56.651Z,66.33
2019-02-12T01:58:28.229Z,66.61
2019-02-12T02:00:59.813Z,66.18
2019-02-12T02:03:31.394Z,66.04
2019-02-12T02:06:02.983Z,66.60
2019-02-12T02:08:34.577Z,66.55
2019-02-12T02:11:06.286Z,66.55
2019-02-12T02:13:38.101Z,66.56
2019-02-12T02:16:09.825Z,67.21
2019-02-12T02:18:41.507Z,67.36
2019-02-12T02:21:13.196Z,67.43
2019-02-12T02:23:44.852Z,67.76
2019-02-12T02:26:16.569Z,67.76
2019-02-12T02:28:48.343Z,68.01
2019-02-12T02:31:19.933Z,67.90
2019-02-12T02:33:51.692Z,67.97
2019-02-12T02:36:23.437Z,68.22
2019-02-12T02:38:55.087Z,68.09
2019-02-12T02:41:26.682Z,68.02
2019-02-12T02:43:58.324Z,68.09
2019-02-12T02:46:30.049Z,67.86
2019-02-12T02:49:01.804Z,67.81
2019-02-12T02:51:33.460Z,67.43
2019-02-12T02:54:05.054Z,67.19
2019-02-12T02:56:36.783Z,67.23
2019-02-12T02:59:08.365Z,67.37
2019-02-12T03:01:39.994Z,67.21
2019-02-12T03:04:11.701Z,66.66
2019-02-12T03:06:43.365Z,66.67
2019-02-12T03:09:15.036Z,66.32
2019-02-12T03:11:46.694Z,66.10
2019-02-12T03:14:18.287Z,66.32
2019-02-12T03:16:49.854Z,66.39
2019-02-12T03:19:21.516Z,66.42
2019-02-12T03:21:53.096Z,66.26
2019-02-12T03:24:24.915Z,65.83
2019-02-12T03:26:56.516Z,65.53
2019-02-12T03:29:28.111Z,65.55
2019-02-12T03:31:59.789Z,65.02
2019-02-12T03:34:31.506Z,64.84
2019-02-12T03:37:03.086Z,64.72
2019-02-12T03:39:34.790Z,65.01
2019-02-12T03:42:06.346Z,65.08
2019-02-12T03:44:38.001Z,64.63
2019-02-12T03:47:09.614Z,65.11
2019-02-12T03:49:41.497Z,65.15
2019-02-12T03:52:13.366Z,65.10
2019-02-12T03:54:45.053Z,65.27
2019-02-12T03:57:16.660Z,65.43
2019-02-12T03:59:48.270Z,65.38
2019-02-12T04:02:20.017Z,65.58
2019-02-12T04:04:51.710Z,65.67
2019-02-12T04:07:23.317Z,65.47
2019-02-12T04:09:54.976Z,65.63
2019-02-12T04:12:29.163Z,65.34
2019-02-12T04:15:00.742Z,65.51
2019-02-12T04:17:32.391Z,65.91
2019-02-12T04:20:05.269Z,65.76
2019-02-12T04:22:36.947Z,65.74
2019-02-12T04:25:08.729Z,65.61
2019-02-12T04:27:40.327Z,65.40
2019-02-12T04:30:12.000Z,65.31
2019-02-12T04:32:43.718Z,65.27
2019-02-12T04:35:15.662Z,65.09
2019-02-12T04:37:48.295Z,65.06
2019-02-12T04:40:19.930Z,65.22
2019-02-12T04:42:51.591Z,64.75
2019-02-12T04:45:23.212Z,64.57
2019-02-12T04:47:55.001Z,64.61
2019-02-12T04:50:27.294Z,64.43
2019-02-12T04:52:58.914Z,64.21
2019-02-12T04:55:30.582Z,64.37
2019-02-12T04:58:02.144Z,64.44
2019-02-12T05:00:36.283Z,64.54
2019-02-12T05:03:07.851Z,64.44
2019-02-12T05:05:39.508Z,64.23
2019-02-12T05:08:12.213Z,64.51
2019-02-12T05:11:08.164Z,64.72
2019-02-12T05:13:39.945Z,64.91
2019-02-12T05:16:11.557Z,65.17
2019-02-12T05:18:43.194Z,65.40
2019-02-12T05:21:14.891Z,65.43
2019-02-12T05:23:46.701Z,65.46
2019-02-12T05:26:18.499Z,65.36
2019-02-12T05:28:50.337Z,65.18
2019-02-12T05:31:21.981Z,64.93
2019-02-12T05:33:53.837Z,64.84
2019-02-12T05:36:25.846Z,65.01
2019-02-12T05:38:57.516Z,64.84
2019-02-12T05:41:29.124Z,65.02
2019-02-12T05:44:00.720Z,65.15
2019-02-12T05:46:32.332Z,65.35
2019-02-12T05:49:03.941Z,64.68
2019-02-12T05:51:37.019Z,64.97
2019-02-12T05:54:08.745Z,65.05
2019-02-12T05:56:40.523Z,64.63
2019-02-12T05:59:12.223Z,64.51
2019-02-12T06:01:43.875Z,64.52
2019-02-12T06:04:15.525Z,64.69
2019-02-12T06:06:47.110Z,64.67
2019-02-12T06:09:18.839Z,64.45
2019-02-12T06:11:50.494Z,64.35
2019-02-12T06:14:22.111Z,64.42
2019-02-12T06:16:53.899Z,64.02
2019-02-12T06:19:25.480Z,64.05
2019-02-12T06:21:57.242Z,64.06
2019-02-12T06:24:29.892Z,64.20
2019-02-12T06:27:02.121Z,64.22
2019-02-12T06:29:33.768Z,63.89
2019-02-12T06:32:05.397Z,64.14
2019-02-12T06:34:37.185Z,64.12
2019-02-12T06:37:09.498Z,64.03
2019-02-12T06:39:44.113Z,64.06
2019-02-12T06:42:16.575Z,64.16
2019-02-12T06:44:48.340Z,64.63
2019-02-12T06:47:20.231Z,64.15
2019-02-12T06:49:51.893Z,64.38
2019-02-12T06:52:23.604Z,64.36
2019-02-12T06:54:58.404Z,64.53
2019-02-12T06:57:45.811Z,64.44
2019-02-12T07:00:17.393Z,64.42
2019-02-12T07:03:18.773Z,64.31
2019-02-12T07:06:16.545Z,64.71
2019-02-12T07:08:56.047Z,64.49
2019-02-12T07:11:50.164Z,64.36
2019-02-12T07:14:38.707Z,64.20
2019-02-12T07:17:33.163Z,64.32
2019-02-12T07:20:49.212Z,64.46
2019-02-12T07:23:49.478Z,64.19
2019-02-12T07:26:45.461Z,64.15
2019-02-12T07:29:39.146Z,64.13
2019-02-12T07:32:27.162Z,64.31
2019-02-12T07:35:12.616Z,64.16
2019-02-12T07:37:52.070Z,64.19
2019-02-12T07:40:51.219Z,64.01
2019-02-12T07:44:02.035Z,63.80
2019-02-12T07:46:38.712Z,63.81
2019-02-12T07:49:33.341Z,63.72
2019-02-12T07:52:24.479Z,63.35
2019-02-12T07:55:09.988Z,63.42
2019-02-12T07:57:58.442Z,62.96
2019-02-12T08:00:58.969Z,62.81
2019-02-12T08:04:20.567Z,62.69
2019-02-12T08:07:33.026Z,62.59
2019-02-12T08:10:53.710Z,62.73
2019-02-12T08:13:45.801Z,62.32
2019-02-12T08:16:49.522Z,61.95
2019-02-12T08:19:42.443Z,61.98
2019-02-12T08:22:43.221Z,61.65
2019-02-12T08:25:31.027Z,61.55
2019-02-12T08:28:07.650Z,61.25
2019-02-12T08:30:58.830Z,60.97
2019-02-12T08:33:49.813Z,60.98
2019-02-12T08:36:38.124Z,61.45
2019-02-12T08:39:32.586Z,61.43
2019-02-12T08:42:11.910Z,61.28
2019-02-12T08:44:58.600Z,61.40
2019-02-12T08:47:57.111Z,61.67
2019-02-12T08:50:57.106Z,61.77
2019-02-12T08:53:59.701Z,61.66
2019-02-12T08:56:59.502Z,61.58
2019-02-12T08:59:43.569Z,61.45
2019-02-12T09:06:11.791Z,61.74
2019-02-12T09:09:07.482Z,61.66
2019-02-12T09:12:19.713Z,62.04
2019-02-12T09:15:16.819Z,61.79
2019-02-12T09:18:11.380Z,61.34
2019-02-12T09:20:53.404Z,61.02
2019-02-12T09:23:59.389Z,61.04
2019-02-12T09:26:37.824Z,60.58
2019-02-12T09:29:14.268Z,60.42
2019-02-12T09:32:08.671Z,60.71
2019-02-12T09:35:08.830Z,60.30
2019-02-12T09:37:56.809Z,60.18
2019-02-12T09:40:36.217Z,59.29
2019-02-12T09:43:43.976Z,59.76
2019-02-12T09:46:34.925Z,59.30
2019-02-12T09:49:30.955Z,59.19
2019-02-12T09:52:28.073Z,58.70
2019-02-12T09:55:25.375Z,58.11
2019-02-12T09:58:19.764Z,58.47
2019-02-12T10:00:58.896Z,58.25
2019-02-12T10:03:41.325Z,58.25
2019-02-12T10:06:38.890Z,57.24
2019-02-12T10:09:23.741Z,57.11
2019-02-12T10:12:14.532Z,57.69
2019-02-12T10:15:02.707Z,57.73
2019-02-12T10:18:04.998Z,57.75
2019-02-12T10:21:24.112Z,57.04
2019-02-12T10:24:27.517Z,57.15
2019-02-12T10:27:43.633Z,56.51
2019-02-12T10:30:34.750Z,56.56
2019-02-12T10:33:06.376Z,56.26
2019-02-12T10:35:38.017Z,56.04
2019-02-12T10:44:19.296Z,55.14
2019-02-12T10:46:50.857Z,56.26
2019-02-12T10:53:00.377Z,55.53
2019-02-12T10:55:31.925Z,55.69
2019-02-12T10:58:03.487Z,54.62
2019-02-12T11:00:35.247Z,55.00
2019-02-12T11:03:07.339Z,54.51
2019-02-12T11:05:38.919Z,54.63
2019-02-12T11:08:10.624Z,54.73
2019-02-12T11:10:42.180Z,54.66
2019-02-12T11:13:14.822Z,54.96
2019-02-12T11:15:46.454Z,54.51
2019-02-12T11:18:18.012Z,54.88
2019-02-12T11:20:49.633Z,54.08
2019-02-12T11:23:21.268Z,54.11
2019-02-12T11:25:52.824Z,54.17
2019-02-12T11:28:24.464Z,54.29
2019-02-12T11:30:56.092Z,54.44
2019-02-12T11:33:27.659Z,54.51
2019-02-12T11:35:59.221Z,54.76
2019-02-12T11:38:31.954Z,53.58
2019-02-12T11:41:03.531Z,53.99
2019-02-12T11:43:35.112Z,53.91
2019-02-12T11:46:06.681Z,53.69
2019-02-12T11:48:38.245Z,54.23
2019-02-12T11:51:09.879Z,54.12
2019-02-12T11:53:41.610Z,54.38
2019-02-12T11:56:13.261Z,52.99
2019-02-12T11:58:44.834Z,53.46
2019-02-12T12:01:17.733Z,53.71
2019-02-12T12:03:49.296Z,53.98
2019-02-12T12:06:20.943Z,53.75
2019-02-12T12:08:52.580Z,53.23
2019-02-12T12:11:24.157Z,52.88
2019-02-12T12:13:55.713Z,52.69
2019-02-12T12:16:27.296Z,53.43
2019-02-12T12:18:58.872Z,53.16
2019-02-12T12:21:30.434Z,52.64
2019-02-12T12:24:02.036Z,52.71
2019-02-12T12:26:33.602Z,53.68
2019-02-12T12:29:05.239Z,52.85
2019-02-12T12:31:36.798Z,51.89
2019-02-12T12:34:08.351Z,51.71
2019-02-12T12:36:39.891Z,52.55
2019-02-12T12:39:11.455Z,52.84
2019-02-12T12:41:43.030Z,51.83
2019-02-12T12:44:14.671Z,52.10
2019-02-12T12:46:46.224Z,52.58
2019-02-12T12:49:17.781Z,52.18
2019-02-12T12:51:49.334Z,51.72
2019-02-12T12:54:20.908Z,52.00
2019-02-12T12:56:52.512Z,52.28
2019-02-12T12:59:24.141Z,52.13
2019-02-12T13:01:55.719Z,52.17
2019-02-12T13:04:27.297Z,53.09
2019-02-12T13:06:59.851Z,53.09
2019-02-12T13:09:31.516Z,53.27
2019-02-12T13:12:03.082Z,53.39
2019-02-12T13:14:34.649Z,53.31
2019-02-12T13:17:06.221Z,52.59
2019-02-12T13:19:37.776Z,53.07
2019-02-12T13:22:09.344Z,52.44
2019-02-12T13:24:41.788Z,51.93
2019-02-12T13:27:13.517Z,51.80
2019-02-12T13:29:45.132Z,52.17
2019-02-12T13:32:16.696Z,52.42
2019-02-12T13:34:48.261Z,52.70
2019-02-12T13:37:19.828Z,52.33
2019-02-12T13:39:51.529Z,51.94
2019-02-12T13:42:23.127Z,51.58
2019-02-12T13:44:54.682Z,51.85
2019-02-12T13:47:26.310Z,52.42
2019-02-12T13:49:59.285Z,52.10
2019-02-12T13:52:30.892Z,51.45
2019-02-12T13:55:02.498Z,51.57
2019-02-12T13:57:34.069Z,51.21
2019-02-12T14:00:19.146Z,51.02
2019-02-12T14:02:50.710Z,50.64
2019-02-12T14:05:24.442Z,50.86
2019-02-12T14:07:56.096Z,51.17
2019-02-12T14:10:28.729Z,51.20
2019-02-12T14:13:00.289Z,50.95
2019-02-12T14:15:31.938Z,51.16
2019-02-12T14:18:03.569Z,51.43
2019-02-12T14:20:35.141Z,51.70
2019-02-12T14:23:06.713Z,50.63
2019-02-12T14:25:38.431Z,50.88
2019-02-12T14:28:09.982Z,50.58
2019-02-12T14:30:41.555Z,50.60
2019-02-12T14:33:13.154Z,50.96
2019-02-12T14:35:44.711Z,50.93
2019-02-12T14:38:16.293Z,50.86
2019-02-12T14:40:47.885Z,50.84
2019-02-12T14:43:19.450Z,50.97
2019-02-12T14:45:51.047Z,50.79
2019-02-12T14:48:22.617Z,51.13
2019-02-12T14:50:54.236Z,51.17
2019-02-12T14:53:25.879Z,50.87
2019-02-12T14:55:57.500Z,51.14
2019-02-12T14:58:29.105Z,51.16
2019-02-12T15:01:00.679Z,50.90
2019-02-12T15:03:32.258Z,51.19
2019-02-12T15:06:03.846Z,51.02
2019-02-12T15:08:35.420Z,51.33
2019-02-12T15:11:07.044Z,51.26
2019-02-12T15:13:38.606Z,51.35
2019-02-12T15:16:10.265Z,51.56
2019-02-12T15:18:41.838Z,51.37
2019-02-12T15:21:13.546Z,51.23
2019-02-12T15:23:45.183Z,51.41
2019-02-12T15:26:16.773Z,51.53
2019-02-12T15:28:48.369Z,52.06
2019-02-12T15:31:19.948Z,51.86
2019-02-12T15:33:51.677Z,52.02
2019-02-12T15:36:23.337Z,52.10
2019-02-12T15:38:55.198Z,52.09
2019-02-12T15:41:26.751Z,52.29
2019-02-12T15:43:58.383Z,52.51
2019-02-12T15:46:29.991Z,52.71
2019-02-12T15:49:01.558Z,53.01
2019-02-12T15:51:33.138Z,53.15
2019-02-12T15:54:06.331Z,53.28
2019-02-12T15:56:39.243Z,53.45
2019-02-12T15:59:12.376Z,53.68
2019-02-12T16:01:44.133Z,53.72
2019-02-12T16:04:15.711Z,53.69
2019-02-12T16:06:47.339Z,53.95
2019-02-12T16:09:18.923Z,54.03
2019-02-12T16:11:50.475Z,53.73
2019-02-12T16:14:22.067Z,53.90
2019-02-12T16:16:54.148Z,54.02
2019-02-12T16:19:25.767Z,53.99
2019-02-12T16:21:57.349Z,54.00
2019-02-12T16:24:28.942Z,53.88
2019-02-12T16:27:00.495Z,53.90
2019-02-12T16:29:32.164Z,53.84
2019-02-12T16:32:03.824Z,53.71
2019-02-12T16:34:35.378Z,53.71
2019-02-12T16:37:06.960Z,53.66
2019-02-12T16:39:38.560Z,53.87
2019-02-12T16:42:10.196Z,53.84
2019-02-12T16:44:41.774Z,53.75
2019-02-12T16:47:13.370Z,53.48
2019-02-12T16:49:44.988Z,53.72
2019-02-12T16:52:20.795Z,53.74
2019-02-12T16:54:49.886Z,53.71
2019-02-12T16:57:21.552Z,53.67
2019-02-12T16:59:53.158Z,53.96
2019-02-12T17:02:24.745Z,54.15
2019-02-12T17:04:56.370Z,54.64
2019-02-12T17:07:28.044Z,54.44
2019-02-12T17:10:00.554Z,54.69
2019-02-12T17:12:33.274Z,54.69
2019-02-12T17:15:06.773Z,54.98
2019-02-12T17:17:38.463Z,54.91
2019-02-12T17:20:17.457Z,55.04
2019-02-12T17:22:49.074Z,55.06
2019-02-12T17:25:20.647Z,55.15
2019-02-12T17:27:52.226Z,55.14
2019-02-12T17:30:23.881Z,55.30
2019-02-12T17:32:55.461Z,55.30
2019-02-12T17:35:27.038Z,55.64
2019-02-12T17:37:58.726Z,55.54
2019-02-12T17:40:30.358Z,55.66
2019-02-12T17:43:02.010Z,55.79
2019-02-12T17:45:33.830Z,55.91
2019-02-12T17:48:05.416Z,55.85
2019-02-12T17:50:37.111Z,55.83
2019-02-12T17:53:08.667Z,55.94
2019-02-12T17:55:40.317Z,55.97
2019-02-12T17:58:11.959Z,55.96
2019-02-12T18:00:45.309Z,56.01
2019-02-12T18:03:16.919Z,56.01
2019-02-12T18:05:48.494Z,56.16
2019-02-12T18:08:20.066Z,56.26
2019-02-12T18:10:51.645Z,56.04
2019-02-12T18:13:23.355Z,56.25
2019-02-12T18:15:55.120Z,56.36
2019-02-12T18:18:26.697Z,56.44
2019-02-12T18:20:58.309Z,56.64
2019-02-12T18:23:29.965Z,56.60
2019-02-12T18:26:01.582Z,56.67
2019-02-12T18:28:33.147Z,56.77
2019-02-12T18:31:04.811Z,56.90
2019-02-12T18:33:36.381Z,56.89
2019-02-12T18:36:07.926Z,56.80
2019-02-12T18:38:39.509Z,56.81
2019-02-12T18:41:11.090Z,56.77
2019-02-12T18:43:42.659Z,56.78
2019-02-12T18:46:14.180Z,56.67
2019-02-12T18:48:45.763Z,56.77
2019-02-12T18:51:17.259Z,56.77
2019-02-12T18:53:48.841Z,56.72
2019-02-12T18:56:20.343Z,56.75
2019-02-12T18:58:51.919Z,56.59
2019-02-12T19:01:23.511Z,56.56
2019-02-12T19:03:55.992Z,56.31
2019-02-12T19:06:27.544Z,56.23
2019-02-12T19:08:59.098Z,55.89
2019-02-12T19:11:30.618Z,55.02
2019-02-12T19:14:02.137Z,54.43
2019-02-12T19:16:33.759Z,53.93
2019-02-12T19:19:05.332Z,54.23
2019-02-12T19:21:36.892Z,55.09
2019-02-12T19:24:08.547Z,55.31
2019-02-12T19:26:40.133Z,55.52
2019-02-12T19:29:11.722Z,55.51
2019-02-12T19:31:43.280Z,55.35
2019-02-12T19:34:14.935Z,54.95
2019-02-12T19:36:46.458Z,54.14
2019-02-12T19:39:17.976Z,53.62
2019-02-12T19:41:49.498Z,53.19
2019-02-12T19:44:21.064Z,53.37
2019-02-12T19:46:52.602Z,53.03
2019-02-12T19:49:25.071Z,52.89
2019-02-12T19:51:56.580Z,52.83
2019-02-12T19:54:28.094Z,53.13
2019-02-12T19:56:59.712Z,52.89
2019-02-12T19:59:31.199Z,52.96
2019-02-12T20:02:02.697Z,52.50
2019-02-12T20:04:34.200Z,52.29
2019-02-12T20:07:05.782Z,52.24
2019-02-12T20:09:37.302Z,52.29
2019-02-12T20:12:08.837Z,52.13
2019-02-12T20:14:53.264Z,51.87
2019-02-12T20:17:25.037Z,52.55
2019-02-12T20:19:57.181Z,52.92
2019-02-12T20:22:28.857Z,52.69
2019-02-12T20:25:00.450Z,52.76
2019-02-12T20:27:36.010Z,53.20
2019-02-12T20:30:09.487Z,53.29
2019-02-12T20:32:41.070Z,52.86
2019-02-12T20:35:17.055Z,52.33
2019-02-12T20:37:48.592Z,51.97
2019-02-12T20:40:20.165Z,51.82
2019-02-12T20:42:51.693Z,51.85
2019-02-12T20:45:23.288Z,51.76
2019-02-12T20:47:54.882Z,51.63
2019-02-12T20:50:26.455Z,51.64
2019-02-12T20:52:58.031Z,51.68
2019-02-12T20:55:29.571Z,51.80
2019-02-12T20:58:01.159Z,52.08
2019-02-12T21:00:32.960Z,52.16
2019-02-12T21:03:04.622Z,52.34
2019-02-12T21:05:36.204Z,52.38
2019-02-12T21:08:07.730Z,52.83
2019-02-12T21:10:39.961Z,53.07
2019-02-12T21:13:11.516Z,53.38
2019-02-12T21:15:43.235Z,53.61
2019-02-12T21:18:15.876Z,53.85
2019-02-12T21:20:47.385Z,54.13
2019-02-12T21:23:18.983Z,54.40
2019-02-12T21:25:50.494Z,54.83
2019-02-12T21:28:22.034Z,55.12
2019-02-12T21:30:53.629Z,55.32
2019-02-12T21:33:26.362Z,55.56
2019-02-12T21:35:57.922Z,55.70
2019-02-12T21:38:29.562Z,55.69
2019-02-12T21:41:01.089Z,55.74
2019-02-12T21:43:32.660Z,55.82
2019-02-12T21:46:04.337Z,56.00
2019-02-12T21:48:36.068Z,56.29
2019-02-12T21:51:07.647Z,56.56
2019-02-12T21:53:39.415Z,56.65
2019-02-12T21:56:10.936Z,56.84
2019-02-12T21:58:42.509Z,56.86
2019-02-12T22:01:14.073Z,56.90
2019-02-12T22:03:45.610Z,56.96
2019-02-12T22:06:17.226Z,57.02
2019-02-12T22:08:48.778Z,57.21
2019-02-12T22:11:20.296Z,57.21
2019-02-12T22:13:51.925Z,57.18
2019-02-12T22:16:23.738Z,57.18
2019-02-12T22:18:55.272Z,57.27
2019-02-12T22:21:26.875Z,57.37
2019-02-12T22:23:58.437Z,57.36
2019-02-12T22:26:30.056Z,57.49
2019-02-12T22:29:01.584Z,57.48
2019-02-12T22:31:33.167Z,57.47
2019-02-12T22:34:05.049Z,57.44
2019-02-12T22:36:36.842Z,57.44
2019-02-12T22:39:08.350Z,57.77
2019-02-12T22:41:40.174Z,57.89
2019-02-12T22:44:11.755Z,57.83
2019-02-12T22:46:43.418Z,57.77
2019-02-12T22:49:15.085Z,57.86
2019-02-12T22:51:46.779Z,58.09
2019-02-12T22:54:18.567Z,58.30
2019-02-12T22:56:50.248Z,58.12
2019-02-12T22:59:21.801Z,57.82
2019-02-12T23:01:53.461Z,57.69
2019-02-12T23:04:25.007Z,58.02
2019-02-12T23:06:56.584Z,58.19
2019-02-12T23:09:28.297Z,57.88
2019-02-12T23:11:59.829Z,57.56
2019-02-12T23:14:31.365Z,57.37
2019-02-12T23:17:03.387Z,57.30
2019-02-12T23:19:35.111Z,57.20
2019-02-12T23:22:07.803Z,57.08
2019-02-12T23:24:39.392Z,57.07
2019-02-12T23:27:11.008Z,56.93
2019-02-12T23:29:42.580Z,56.86
2019-02-12T23:32:14.252Z,56.67
2019-02-12T23:34:45.785Z,56.63
2019-02-12T23:37:17.791Z,56.60
2019-02-12T23:39:49.397Z,56.55
2019-02-12T23:42:20.933Z,57.02
2019-02-12T23:44:52.535Z,56.75
2019-02-12T23:47:24.150Z,57.07
2019-02-12T23:49:55.737Z,57.17
2019-02-12T23:52:27.390Z,56.84
2019-02-12T23:54:59.131Z,56.73
2019-02-12T23:57:30.662Z,56.48
